createdAt,value
2022-10-06T00:04:29.789Z,14.84
2022-10-06T00:14:31.107Z,14.79
2022-10-06T00:24:32.487Z,14.84
2022-10-06T00:34:33.984Z,14.69
2022-10-06T00:44:35.296Z,14.52
2022-10-06T00:54:36.600Z,14.46
2022-10-06T01:04:37.923Z,14.44
2022-10-06T01:14:39.308Z,14.38
2022-10-06T01:24:40.603Z,14.28
2022-10-06T01:34:41.984Z,14.24
2022-10-06T01:44:43.328Z,14.05
2022-10-06T01:54:44.635Z,13.99
2022-10-06T02:04:46.300Z,13.82
2022-10-06T02:14:47.601Z,13.90
2022-10-06T02:24:49.153Z,13.87
2022-10-06T02:34:50.443Z,13.74
2022-10-06T02:44:52.317Z,13.62
2022-10-06T02:54:53.614Z,13.48
2022-10-06T03:04:54.927Z,13.41
2022-10-06T03:14:56.232Z,13.35
2022-10-06T03:24:57.580Z,13.23
2022-10-06T03:34:58.894Z,13.18
2022-10-06T03:45:00.558Z,13.28
2022-10-06T03:55:01.865Z,13.40
2022-10-06T04:05:03.219Z,13.45
2022-10-06T04:15:04.544Z,13.80
2022-10-06T04:25:05.792Z,13.90
2022-10-06T04:35:07.104Z,13.88
2022-10-06T04:45:08.416Z,13.80
2022-10-06T04:55:11.160Z,14.04
2022-10-06T05:05:12.489Z,14.32
2022-10-06T05:15:15.574Z,14.39
2022-10-06T05:25:16.942Z,14.30
2022-10-06T05:35:18.365Z,14.25
2022-10-06T05:45:19.751Z,14.27
2022-10-06T05:55:21.068Z,14.19
2022-10-06T06:05:22.407Z,14.31
2022-10-06T06:15:42.428Z,14.42
2022-10-06T06:25:44.292Z,14.38
2022-10-06T06:35:45.611Z,14.48
2022-10-06T06:45:46.971Z,14.73
2022-10-06T06:55:50.475Z,14.70
2022-10-06T07:05:51.830Z,14.76
2022-10-06T07:16:28.416Z,14.89
2022-10-06T07:26:31.049Z,14.99
2022-10-06T07:36:32.401Z,15.18
2022-10-06T07:46:33.723Z,15.29
2022-10-06T07:56:35.046Z,15.36
2022-10-06T08:06:36.275Z,15.56
2022-10-06T08:16:37.684Z,15.98
2022-10-06T08:26:39.085Z,16.06
2022-10-06T08:36:45.026Z,16.20
2022-10-06T08:46:53.687Z,16.17
2022-10-06T08:56:55.030Z,16.27
2022-10-06T09:07:00.032Z,16.48
2022-10-06T09:17:01.348Z,16.30
2022-10-06T09:27:02.705Z,16.79
2022-10-06T09:37:04.110Z,16.73
2022-10-06T09:47:05.359Z,16.84
2022-10-06T09:57:06.599Z,16.81
2022-10-06T10:07:07.832Z,16.91
2022-10-06T10:17:09.162Z,16.82
2022-10-06T10:27:14.145Z,17.00
2022-10-06T10:37:15.495Z,17.29
2022-10-06T10:47:16.888Z,17.50
2022-10-06T10:57:18.257Z,18.06
2022-10-06T11:07:21.288Z,17.92
2022-10-06T11:17:22.688Z,18.13
2022-10-06T11:27:24.110Z,17.89
2022-10-06T11:37:25.520Z,17.76
2022-10-06T11:47:35.123Z,17.97
2022-10-06T11:57:37.351Z,18.17
2022-10-06T12:07:38.836Z,18.52
2022-10-06T12:17:40.458Z,18.33
2022-10-06T12:27:41.725Z,18.68
2022-10-06T12:37:43.106Z,18.62
2022-10-06T12:47:44.558Z,18.33
2022-10-06T12:57:45.867Z,18.37
2022-10-06T13:07:47.078Z,18.49
2022-10-06T13:17:48.366Z,18.57
2022-10-06T13:27:51.332Z,18.14
2022-10-06T13:37:52.684Z,18.25
2022-10-06T13:47:54.008Z,18.23
2022-10-06T13:57:55.343Z,18.09
2022-10-06T14:07:56.734Z,18.35
2022-10-06T14:17:58.226Z,18.37
2022-10-06T14:27:59.579Z,18.46
2022-10-06T14:38:01.259Z,18.36
2022-10-06T14:48:04.542Z,18.18
2022-10-06T14:58:05.802Z,17.96
2022-10-06T15:08:10.487Z,17.94
2022-10-06T15:18:11.794Z,17.80
2022-10-06T15:28:31.723Z,17.55
2022-10-06T15:38:33.160Z,17.41
2022-10-06T15:48:34.467Z,17.25
2022-10-06T15:58:35.963Z,17.12
2022-10-06T16:08:37.339Z,16.74
2022-10-06T16:18:38.708Z,16.39
2022-10-06T16:28:40.078Z,16.05
2022-10-06T16:38:41.482Z,15.68
2022-10-06T16:48:42.759Z,15.32
2022-10-06T16:58:56.041Z,14.85
2022-10-06T17:08:57.271Z,14.55
2022-10-06T17:18:58.522Z,14.30
2022-10-06T17:28:59.816Z,13.86
2022-10-06T17:39:03.961Z,13.75
2022-10-06T17:49:05.705Z,13.48
2022-10-06T17:59:07.427Z,13.25
2022-10-06T18:09:08.836Z,13.01
2022-10-06T18:19:10.219Z,12.68
2022-10-06T18:29:11.558Z,12.33
2022-10-06T18:39:12.838Z,12.26
2022-10-06T18:49:15.493Z,12.03
2022-10-06T18:59:16.778Z,11.97
2022-10-06T19:09:18.281Z,11.76
2022-10-06T19:19:22.069Z,11.76
2022-10-06T19:29:23.733Z,11.62
2022-10-06T19:39:25.089Z,11.50
2022-10-06T19:49:26.394Z,11.31
2022-10-06T19:59:27.779Z,11.15
2022-10-06T20:09:29.857Z,11.03
2022-10-06T20:19:31.262Z,11.04
2022-10-06T20:29:32.695Z,11.01
2022-10-06T20:39:52.621Z,11.03
2022-10-06T20:49:55.400Z,10.97
2022-10-06T20:59:57.168Z,11.18
2022-10-06T21:09:58.765Z,11.37
2022-10-06T21:20:00.204Z,11.30
2022-10-06T21:30:01.655Z,11.42
2022-10-06T21:40:03.094Z,11.29
2022-10-06T21:50:04.538Z,11.25
2022-10-06T22:00:06.125Z,11.24
2022-10-06T22:10:07.550Z,11.29
2022-10-06T22:20:08.972Z,11.45
2022-10-06T22:30:10.461Z,11.52
2022-10-06T22:40:11.932Z,11.70
2022-10-06T22:50:13.361Z,11.74
2022-10-06T23:00:14.812Z,11.73
2022-10-06T23:10:16.709Z,11.79
2022-10-06T23:20:18.107Z,11.81
2022-10-06T23:30:19.540Z,11.95
2022-10-06T23:40:20.998Z,11.89
2022-10-06T23:50:22.426Z,11.83
